createdAt,value
2022-07-30T00:42:48.405Z,40.30
2022-07-30T04:53:21.832Z,48.40
2022-07-30T05:27:42.579Z,41.03
2022-07-30T06:22:05.931Z,42.35
2022-07-30T06:34:19.097Z,46.90
2022-07-30T06:41:37.960Z,48.70
2022-07-30T06:53:49.559Z,49.25
2022-07-30T07:03:39.540Z,44.05
2022-07-30T07:13:27.829Z,52.05
2022-07-30T07:25:40.802Z,56.30
2022-07-30T07:30:40.909Z,54.53
2022-07-30T07:33:07.307Z,44.05
2022-07-30T07:38:15.767Z,108.45
2022-07-30T07:40:42.142Z,132.85
2022-07-30T07:43:08.531Z,109.13
2022-07-30T07:45:34.902Z,103.80
2022-07-30T07:48:01.287Z,100.07
2022-07-30T07:50:27.662Z,98.43
2022-07-30T07:52:54.037Z,93.55
2022-07-30T07:55:22.384Z,89.50
2022-07-30T07:57:48.784Z,85.28
2022-07-30T08:00:15.388Z,64.38
2022-07-30T08:02:41.861Z,67.80
2022-07-30T08:05:08.535Z,46.78
2022-07-30T08:07:34.913Z,80.75
2022-07-30T08:10:01.280Z,51.03
2022-07-30T08:12:27.675Z,80.95
2022-07-30T08:14:54.041Z,57.15
2022-07-30T08:17:20.475Z,74.93
2022-07-30T08:19:47.762Z,64.72
2022-07-30T08:22:14.147Z,43.92
2022-07-30T08:24:40.517Z,54.17
2022-07-30T08:27:06.915Z,54.47
2022-07-30T08:29:33.285Z,54.33
2022-07-30T08:31:59.890Z,53.15
2022-07-30T08:34:26.464Z,54.70
2022-07-30T08:36:52.862Z,54.67
2022-07-30T08:39:19.231Z,52.30
2022-07-30T08:41:45.609Z,52.95
2022-07-30T08:44:12.994Z,56.10
2022-07-30T08:46:47.495Z,54.28
2022-07-30T08:49:14.323Z,55.70
2022-07-30T08:51:40.711Z,54.40
2022-07-30T08:54:07.091Z,54.50
2022-07-30T08:56:33.859Z,54.00
2022-07-30T08:59:00.571Z,54.78
2022-07-30T09:01:26.937Z,54.38
2022-07-30T09:03:53.380Z,54.78
2022-07-30T09:06:19.809Z,54.47
2022-07-30T09:08:46.190Z,54.97
2022-07-30T09:11:12.556Z,53.92
2022-07-30T09:13:40.181Z,54.78
2022-07-30T09:16:06.592Z,54.45
2022-07-30T09:18:42.016Z,113.00
2022-07-30T09:21:20.839Z,109.10
2022-07-30T09:23:57.696Z,113.53
2022-07-30T09:26:24.069Z,116.68
2022-07-30T09:28:50.453Z,125.93
2022-07-30T09:31:17.237Z,117.95
2022-07-30T09:33:44.422Z,115.63
2022-07-30T09:36:17.549Z,107.85
2022-07-30T09:38:51.111Z,49.15
2022-07-30T09:41:38.243Z,47.72
2022-07-30T09:44:05.921Z,48.67
2022-07-30T09:46:47.015Z,41.00
2022-07-30T09:51:57.040Z,168.18
2022-07-30T09:57:05.546Z,197.65
2022-07-30T09:59:35.000Z,196.77
2022-07-30T10:02:03.988Z,192.75
2022-07-30T10:04:32.228Z,78.63
2022-07-30T10:06:59.355Z,177.30
2022-07-30T10:09:30.159Z,207.13
2022-07-30T10:11:58.841Z,211.65
2022-07-30T10:14:31.385Z,220.68
2022-07-30T10:16:59.024Z,216.32
2022-07-30T10:19:40.068Z,216.60
2022-07-30T10:22:09.004Z,225.48
2022-07-30T10:24:37.956Z,221.45
2022-07-30T10:27:06.186Z,218.82
2022-07-30T10:29:34.276Z,234.05
2022-07-30T10:32:00.726Z,226.23
2022-07-30T10:34:31.352Z,231.55
2022-07-30T10:37:04.850Z,124.45
2022-07-30T10:39:43.549Z,93.65
2022-07-30T10:42:35.282Z,85.28
2022-07-30T10:45:17.428Z,86.80
2022-07-30T10:47:45.030Z,66.30
2022-07-30T10:50:17.332Z,79.18
2022-07-30T10:52:54.586Z,84.40
2022-07-30T10:55:36.592Z,152.20
2022-07-30T10:58:12.528Z,155.73
2022-07-30T11:00:54.058Z,171.75
2022-07-30T11:03:41.673Z,168.00
2022-07-30T11:06:14.392Z,172.30
2022-07-30T11:08:45.599Z,161.35
2022-07-30T11:11:59.275Z,151.80
2022-07-30T11:14:10.133Z,156.43
2022-07-30T11:16:37.119Z,143.90
2022-07-30T11:22:23.564Z,142.25
2022-07-30T11:24:49.970Z,141.05
2022-07-30T11:27:45.545Z,133.02
2022-07-30T11:30:18.347Z,139.23
2022-07-30T11:33:04.872Z,140.43
2022-07-30T11:35:34.928Z,133.80
2022-07-30T11:38:14.447Z,143.52
2022-07-30T11:40:48.083Z,132.80
2022-07-30T11:43:36.220Z,142.48
2022-07-30T11:46:16.410Z,149.23
2022-07-30T11:49:03.706Z,145.48
2022-07-30T11:51:41.315Z,138.43
2022-07-30T11:54:08.148Z,143.55
2022-07-30T11:56:34.524Z,141.75
2022-07-30T11:59:04.669Z,136.82
2022-07-30T12:01:31.195Z,141.73
2022-07-30T12:03:57.560Z,124.03
2022-07-30T12:06:23.932Z,138.75
2022-07-30T12:08:53.956Z,134.18
2022-07-30T12:11:22.877Z,121.53
2022-07-30T12:13:56.547Z,110.43
2022-07-30T12:16:22.962Z,105.80
2022-07-30T12:18:49.378Z,98.45
2022-07-30T12:21:15.858Z,101.97
2022-07-30T12:23:42.602Z,63.55
2022-07-30T12:26:09.418Z,57.75
2022-07-30T12:28:35.784Z,84.80
2022-07-30T12:31:02.284Z,76.95
2022-07-30T12:33:28.664Z,80.80
2022-07-30T12:35:56.381Z,91.40
2022-07-30T12:38:23.779Z,56.97
2022-07-30T12:41:03.499Z,96.00
2022-07-30T12:43:52.374Z,91.63
2022-07-30T12:46:22.200Z,77.75
2022-07-30T12:48:49.855Z,75.05
2022-07-30T12:51:16.272Z,69.63
2022-07-30T12:53:43.506Z,56.55
2022-07-30T12:56:13.273Z,87.28
2022-07-30T12:58:40.100Z,57.50
2022-07-30T13:01:06.655Z,60.17
2022-07-30T13:03:33.057Z,82.50
2022-07-30T13:06:00.793Z,82.50
2022-07-30T13:08:55.558Z,72.65
2022-07-30T13:11:23.304Z,76.30
2022-07-30T13:13:49.770Z,62.70
2022-07-30T13:16:16.199Z,29.92
2022-07-30T13:18:42.646Z,55.65
2022-07-30T13:21:09.428Z,62.17
2022-07-30T13:23:36.393Z,65.63
2022-07-30T13:26:02.922Z,61.05
2022-07-30T13:28:29.303Z,55.33
2022-07-30T13:30:56.386Z,61.63
2022-07-30T13:33:22.973Z,55.28
2022-07-30T13:35:49.349Z,55.20
2022-07-30T13:38:15.732Z,44.85
2022-07-30T13:40:42.109Z,42.40
2022-07-30T13:43:08.494Z,58.70
2022-07-30T13:45:34.916Z,60.47
2022-07-30T13:48:01.304Z,54.63
2022-07-30T13:50:27.675Z,57.35
2022-07-30T13:52:55.285Z,56.25
2022-07-30T13:55:24.164Z,56.92
2022-07-30T13:57:50.540Z,56.35
2022-07-30T14:00:17.006Z,58.15
2022-07-30T14:02:43.381Z,62.33
2022-07-30T14:05:09.794Z,58.45
2022-07-30T14:07:36.660Z,64.97
2022-07-30T14:10:04.015Z,58.13
2022-07-30T14:12:30.484Z,54.33
2022-07-30T14:14:56.867Z,57.47
2022-07-30T14:17:23.237Z,58.13
2022-07-30T14:19:49.612Z,56.90
2022-07-30T14:22:16.002Z,55.58
2022-07-30T14:24:42.379Z,57.80
2022-07-30T14:27:08.764Z,56.95
2022-07-30T14:29:35.150Z,56.00
2022-07-30T14:32:01.531Z,57.75
2022-07-30T14:34:27.902Z,57.70
2022-07-30T14:36:54.293Z,57.03
2022-07-30T14:39:20.676Z,56.30
2022-07-30T14:41:47.058Z,55.42
2022-07-30T14:44:13.425Z,56.55
2022-07-30T14:46:52.116Z,57.22
2022-07-30T14:49:19.002Z,57.13
2022-07-30T14:51:45.609Z,57.25
2022-07-30T14:54:11.977Z,56.97
2022-07-30T14:56:38.586Z,56.90
2022-07-30T14:59:04.972Z,56.70
2022-07-30T15:01:31.403Z,57.78
2022-07-30T15:03:58.121Z,56.17
2022-07-30T15:06:25.228Z,57.88
2022-07-30T15:08:51.605Z,58.88
2022-07-30T15:11:17.983Z,56.55
2022-07-30T15:13:50.078Z,58.15
2022-07-30T15:16:17.153Z,47.55
2022-07-30T15:18:43.538Z,55.05
2022-07-30T15:21:09.909Z,55.25
2022-07-30T15:23:36.278Z,58.42
2022-07-30T15:26:02.644Z,56.70
2022-07-30T15:28:29.038Z,55.45
2022-07-30T15:30:55.410Z,42.88
2022-07-30T15:33:21.994Z,56.90
2022-07-30T15:35:49.353Z,55.83
2022-07-30T15:38:15.849Z,57.00
2022-07-30T15:40:43.498Z,58.70
2022-07-30T15:43:10.092Z,54.83
2022-07-30T15:45:51.155Z,55.78
2022-07-30T15:48:26.842Z,58.33
2022-07-30T15:51:03.699Z,57.85
2022-07-30T15:53:30.767Z,55.17
2022-07-30T15:55:57.947Z,56.30
2022-07-30T15:58:24.357Z,58.03
2022-07-30T16:00:50.764Z,58.35
2022-07-30T16:03:17.198Z,57.55
2022-07-30T16:05:51.090Z,57.42
2022-07-30T16:08:19.047Z,58.45
2022-07-30T16:10:45.414Z,57.33
2022-07-30T16:13:11.793Z,58.22
2022-07-30T16:15:38.171Z,56.30
2022-07-30T16:18:04.694Z,56.20
2022-07-30T16:20:31.530Z,55.78
2022-07-30T16:22:57.906Z,56.63
2022-07-30T16:25:24.311Z,57.33
2022-07-30T16:27:50.700Z,56.55
2022-07-30T16:30:17.091Z,54.97
2022-07-30T16:32:43.468Z,54.72
2022-07-30T16:35:13.119Z,54.45
2022-07-30T16:37:39.869Z,53.30
2022-07-30T16:40:06.554Z,54.85
2022-07-30T16:42:32.928Z,55.95
2022-07-30T16:44:59.322Z,50.42
2022-07-30T16:47:25.720Z,49.97
2022-07-30T16:49:52.109Z,49.72
2022-07-30T16:52:18.499Z,48.15
2022-07-30T16:54:44.890Z,46.28
2022-07-30T16:57:11.261Z,50.97
2022-07-30T16:59:37.657Z,50.67
2022-07-30T17:02:04.223Z,52.05
2022-07-30T17:04:30.849Z,51.92
2022-07-30T17:06:57.234Z,50.47
2022-07-30T17:09:23.617Z,53.70
2022-07-30T17:11:52.340Z,52.80
2022-07-30T17:14:19.143Z,52.70
2022-07-30T17:16:45.531Z,52.60
2022-07-30T17:19:12.118Z,52.28
2022-07-30T17:21:38.492Z,52.95
2022-07-30T17:24:05.926Z,52.65
2022-07-30T17:26:32.306Z,53.35
2022-07-30T17:31:24.921Z,44.25
2022-07-30T17:33:51.294Z,33.28
2022-07-30T17:38:43.908Z,30.53
